createdAt,value
2018-02-06T00:00:13.246Z,1007.12
2018-02-06T00:01:13.274Z,1007.17
2018-02-06T00:02:13.351Z,1007.17
2018-02-06T00:03:13.331Z,1007.18
2018-02-06T00:04:13.356Z,1007.18
2018-02-06T00:05:13.384Z,1007.16
2018-02-06T00:06:13.412Z,1007.06
2018-02-06T00:07:13.439Z,1007.02
2018-02-06T00:08:13.480Z,1007.02
2018-02-06T00:09:13.495Z,1007.05
2018-02-06T00:10:13.521Z,1007.03
2018-02-06T00:11:13.549Z,1007.05
2018-02-06T00:12:13.577Z,1006.96
2018-02-06T00:13:13.605Z,1006.88
2018-02-06T00:14:13.634Z,1006.90
2018-02-06T00:15:13.682Z,1006.90
2018-02-06T00:16:13.688Z,1006.93
2018-02-06T00:17:13.717Z,1007.01
2018-02-06T00:18:13.744Z,1007.03
2018-02-06T00:19:13.769Z,1007.04
2018-02-06T00:20:13.801Z,1006.98
2018-02-06T00:21:13.825Z,1006.93
2018-02-06T00:22:13.852Z,1006.96
2018-02-06T00:23:13.880Z,1006.93
2018-02-06T00:24:13.908Z,1006.91
2018-02-06T00:25:13.936Z,1006.92
2018-02-06T00:26:13.962Z,1006.91
2018-02-06T00:27:13.990Z,1006.93
2018-02-06T00:28:14.017Z,1006.91
2018-02-06T00:29:14.045Z,1006.85
2018-02-06T00:30:14.072Z,1006.79
2018-02-06T00:31:14.101Z,1006.81
2018-02-06T00:32:14.139Z,1006.79
2018-02-06T00:33:14.155Z,1006.68
2018-02-06T00:34:14.182Z,1006.64
2018-02-06T00:35:14.263Z,1006.64
2018-02-06T00:36:14.238Z,1006.60
2018-02-06T00:37:14.267Z,1006.57
2018-02-06T00:38:14.292Z,1006.55
2018-02-06T00:39:14.398Z,1006.56
2018-02-06T00:40:14.347Z,1006.59
2018-02-06T00:41:14.375Z,1006.60
2018-02-06T00:42:14.402Z,1006.53
2018-02-06T00:43:14.430Z,1006.52
2018-02-06T00:44:14.465Z,1006.57
2018-02-06T00:45:14.485Z,1006.56
2018-02-06T00:46:14.512Z,1006.55
2018-02-06T00:47:14.568Z,1006.59
2018-02-06T00:48:14.584Z,1006.56
2018-02-06T00:49:14.596Z,1006.53
2018-02-06T00:50:14.622Z,1006.51
2018-02-06T00:51:14.650Z,1006.47
2018-02-06T00:52:14.680Z,1006.41
2018-02-06T00:53:14.706Z,1006.36
2018-02-06T00:54:14.731Z,1006.37
2018-02-06T00:55:14.759Z,1006.37
2018-02-06T00:56:14.789Z,1006.31
2018-02-06T00:57:14.817Z,1006.27
2018-02-06T00:58:14.843Z,1006.29
2018-02-06T00:59:14.871Z,1006.27
2018-02-06T01:00:14.900Z,1006.27
2018-02-06T01:01:14.925Z,1006.25
2018-02-06T01:02:14.953Z,1006.33
2018-02-06T01:03:14.980Z,1006.30
2018-02-06T01:04:15.008Z,1006.30
2018-02-06T01:05:15.051Z,1006.30
2018-02-06T01:06:15.063Z,1006.29
2018-02-06T01:07:15.091Z,1006.26
2018-02-06T01:08:15.118Z,1006.21
2018-02-06T01:09:15.146Z,1006.14
2018-02-06T01:10:15.210Z,1006.12
2018-02-06T01:11:15.201Z,1006.12
2018-02-06T01:12:15.228Z,1006.07
2018-02-06T01:13:15.256Z,1006.05
2018-02-06T01:14:15.283Z,1006.07
2018-02-06T01:15:15.310Z,1006.10
2018-02-06T01:16:15.338Z,1006.08
2018-02-06T01:17:15.394Z,1006.11
2018-02-06T01:18:15.392Z,1006.11
2018-02-06T01:19:15.422Z,1006.10
2018-02-06T01:20:15.470Z,1006.06
2018-02-06T01:21:15.489Z,1006.02
2018-02-06T01:22:15.502Z,1006.00
2018-02-06T01:23:15.530Z,1005.96
2018-02-06T01:24:15.558Z,1006.01
2018-02-06T01:25:15.585Z,1005.95
2018-02-06T01:26:15.613Z,1005.93
2018-02-06T01:27:15.643Z,1005.87
2018-02-06T01:28:15.669Z,1005.83
2018-02-06T01:29:15.696Z,1005.82
2018-02-06T01:30:15.722Z,1005.80
2018-02-06T01:31:15.750Z,1005.78
2018-02-06T01:32:15.779Z,1005.82
2018-02-06T01:33:15.807Z,1005.74
2018-02-06T01:34:15.833Z,1005.81
2018-02-06T01:35:15.863Z,1005.76
2018-02-06T01:36:15.888Z,1005.69
2018-02-06T01:37:15.915Z,1005.72
2018-02-06T01:38:15.943Z,1005.68
2018-02-06T01:39:15.973Z,1005.73
2018-02-06T01:40:15.998Z,1005.67
2018-02-06T01:41:16.026Z,1005.64
2018-02-06T01:42:16.054Z,1005.75
2018-02-06T01:43:16.079Z,1005.75
2018-02-06T01:44:16.109Z,1005.67
2018-02-06T01:45:16.136Z,1005.64
2018-02-06T01:46:16.162Z,1005.58
2018-02-06T01:47:16.191Z,1005.56
2018-02-06T01:48:16.219Z,1005.57
2018-02-06T01:49:16.246Z,1005.65
2018-02-06T01:50:16.273Z,1005.62
2018-02-06T01:51:16.301Z,1005.55
2018-02-06T01:52:16.328Z,1005.49
2018-02-06T01:53:16.356Z,1005.41
2018-02-06T01:54:16.383Z,1005.38
2018-02-06T01:55:16.411Z,1005.35
2018-02-06T01:56:16.438Z,1005.32
2018-02-06T01:57:16.466Z,1005.28
2018-02-06T01:58:16.492Z,1005.24
2018-02-06T01:59:16.522Z,1005.29
2018-02-06T02:00:16.548Z,1005.31
2018-02-06T02:01:16.576Z,1005.23
2018-02-06T02:02:16.603Z,1005.17
2018-02-06T02:03:16.631Z,1005.18
2018-02-06T02:04:16.658Z,1005.20
2018-02-06T02:05:16.685Z,1005.09
2018-02-06T02:06:16.716Z,1005.03
2018-02-06T02:07:16.740Z,1004.99
2018-02-06T02:08:16.768Z,1004.93
2018-02-06T02:09:16.797Z,1004.94
2018-02-06T02:10:16.833Z,1004.89
2018-02-06T02:11:16.851Z,1004.89
2018-02-06T02:12:16.879Z,1004.89
2018-02-06T02:13:16.938Z,1004.88
2018-02-06T02:14:16.938Z,1004.84
2018-02-06T02:15:16.960Z,1004.80
2018-02-06T02:16:16.988Z,1004.80
2018-02-06T02:17:17.015Z,1004.78
2018-02-06T02:18:17.042Z,1004.70
2018-02-06T02:19:17.071Z,1004.71
2018-02-06T02:20:17.097Z,1004.69
2018-02-06T02:21:17.126Z,1004.75
2018-02-06T02:22:17.152Z,1004.70
2018-02-06T02:23:17.179Z,1004.70
2018-02-06T02:24:17.208Z,1004.72
2018-02-06T02:25:17.235Z,1004.68
2018-02-06T02:26:17.262Z,1004.65
2018-02-06T02:27:17.290Z,1004.65
2018-02-06T02:28:17.318Z,1004.65
2018-02-06T02:29:17.345Z,1004.61
2018-02-06T02:30:17.372Z,1004.59
2018-02-06T02:31:17.399Z,1004.52
2018-02-06T02:32:17.427Z,1004.57
2018-02-06T02:33:17.455Z,1004.52
2018-02-06T02:34:17.512Z,1004.47
2018-02-06T02:35:17.510Z,1004.45
2018-02-06T02:36:17.539Z,1004.48
2018-02-06T02:37:17.565Z,1004.42
2018-02-06T02:38:17.592Z,1004.39
2018-02-06T02:39:17.623Z,1004.37
2018-02-06T02:40:17.647Z,1004.37
2018-02-06T02:41:17.674Z,1004.34
2018-02-06T04:39:20.920Z,1003.00
2018-02-06T04:40:20.948Z,1002.99
2018-02-06T04:41:20.976Z,1002.97
2018-02-06T04:42:21.003Z,1002.97
2018-02-06T04:43:21.032Z,1003.01
2018-02-06T04:44:21.058Z,1002.97
2018-02-06T04:45:21.086Z,1003.00
2018-02-06T04:46:21.112Z,1003.00
2018-02-06T04:47:21.140Z,1002.95
2018-02-06T04:48:21.168Z,1002.96
2018-02-06T04:49:21.196Z,1002.93
2018-02-06T04:50:21.255Z,1002.95
2018-02-06T04:51:21.251Z,1002.93
2018-02-06T04:52:21.277Z,1002.90
2018-02-06T04:53:21.311Z,1002.86
2018-02-06T04:54:21.333Z,1002.86
2018-02-06T04:55:21.360Z,1002.86
2018-02-06T04:56:21.388Z,1002.88
2018-02-06T04:57:21.416Z,1002.81
2018-02-06T04:58:21.442Z,1002.84
2018-02-06T04:59:21.473Z,1002.85
2018-02-06T05:00:21.499Z,1002.82
2018-02-06T05:01:21.526Z,1002.86
2018-02-06T05:02:21.553Z,1002.81
2018-02-06T05:03:21.580Z,1002.78
2018-02-06T05:04:21.608Z,1002.78
2018-02-06T05:05:21.636Z,1002.81
2018-02-06T05:06:21.664Z,1002.77
2018-02-06T05:07:21.729Z,1002.78
2018-02-06T05:08:21.755Z,1002.77
2018-02-06T05:09:21.747Z,1002.76
2018-02-06T05:10:21.773Z,1002.74
2018-02-06T05:11:21.802Z,1002.69
2018-02-06T05:12:21.829Z,1002.73
2018-02-06T05:13:21.877Z,1002.76
2018-02-06T05:14:21.883Z,1002.67
2018-02-06T05:15:21.912Z,1002.69
2018-02-06T05:16:21.939Z,1002.68
2018-02-06T05:17:21.967Z,1002.73
2018-02-06T05:18:21.994Z,1002.68
2018-02-06T05:19:22.022Z,1002.61
2018-02-06T05:20:22.058Z,1002.59
2018-02-06T05:21:22.092Z,1002.58
2018-02-06T05:22:22.104Z,1002.63
2018-02-06T05:23:22.132Z,1002.61
2018-02-06T05:24:22.160Z,1002.60
2018-02-06T05:25:22.200Z,1002.63
2018-02-06T05:26:22.242Z,1002.63
2018-02-06T05:27:22.242Z,1002.60
2018-02-06T05:28:22.305Z,1002.63
2018-02-06T05:29:22.298Z,1002.60
2018-02-06T05:30:22.325Z,1002.57
2018-02-06T05:31:22.353Z,1002.61
2018-02-06T05:32:22.381Z,1002.60
2018-02-06T05:33:22.408Z,1002.59
2018-02-06T05:34:22.435Z,1002.48
2018-02-06T05:35:22.463Z,1002.56
2018-02-06T05:36:22.491Z,1002.48
2018-02-06T05:37:22.519Z,1002.49
2018-02-06T05:38:22.546Z,1002.51
2018-02-06T05:39:22.605Z,1002.47
2018-02-06T05:40:22.608Z,1002.41
2018-02-06T05:41:22.651Z,1002.44
2018-02-06T05:42:22.655Z,1002.49
2018-02-06T05:43:22.683Z,1002.46
2018-02-06T05:44:22.711Z,1002.45
2018-02-06T05:45:22.760Z,1002.43
2018-02-06T05:46:22.795Z,1002.48
2018-02-06T05:47:22.794Z,1002.47
2018-02-06T05:48:22.822Z,1002.35
2018-02-06T05:49:22.853Z,1002.31
2018-02-06T05:50:22.879Z,1002.31
2018-02-06T05:51:22.904Z,1002.30
2018-02-06T05:52:22.964Z,1002.29
2018-02-06T05:53:22.961Z,1002.27
2018-02-06T05:54:22.997Z,1002.20
2018-02-06T05:55:23.032Z,1002.28
2018-02-06T05:56:23.045Z,1002.23
2018-02-06T05:57:23.070Z,1002.27
2018-02-06T05:58:23.098Z,1002.22
2018-02-06T05:59:23.127Z,1002.20
2018-02-06T06:00:23.156Z,1002.18
2018-02-06T06:01:23.182Z,1002.28
2018-02-06T06:02:23.208Z,1002.24
2018-02-06T06:03:23.235Z,1002.12
2018-02-06T06:04:23.264Z,1002.17
2018-02-06T06:05:23.291Z,1002.17
2018-02-06T06:06:23.339Z,1002.22
2018-02-06T06:07:23.346Z,1002.15
2018-02-06T06:08:23.374Z,1002.15
2018-02-06T06:09:23.402Z,1002.12
2018-02-06T06:10:23.430Z,1002.08
2018-02-06T06:11:23.457Z,1002.00
2018-02-06T06:12:23.491Z,1002.00
2018-02-06T06:13:23.513Z,1002.02
2018-02-06T06:14:23.540Z,1002.07
2018-02-06T06:15:23.619Z,1002.04
2018-02-06T06:16:23.596Z,1001.97
2018-02-06T06:17:23.625Z,1001.99
2018-02-06T06:18:23.650Z,1002.02
2018-02-06T06:19:23.679Z,1002.00
2018-02-06T06:20:23.706Z,1001.99
2018-02-06T06:21:23.735Z,1002.03
2018-02-06T06:22:23.776Z,1002.05
2018-02-06T06:23:23.792Z,1001.98
2018-02-06T06:24:23.818Z,1001.96
2018-02-06T06:25:23.846Z,1001.96
2018-02-06T06:26:23.891Z,1001.95
2018-02-06T06:27:23.903Z,1001.96
2018-02-06T06:28:23.929Z,1001.94
2018-02-06T06:29:23.957Z,1001.90
2018-02-06T06:30:23.984Z,1001.98
2018-02-06T06:31:24.012Z,1001.87
2018-02-06T06:32:24.039Z,1001.84
2018-02-06T06:33:24.067Z,1001.81
2018-02-06T06:34:24.094Z,1001.86
2018-02-06T06:35:24.122Z,1001.82
2018-02-06T06:36:24.186Z,1001.80
2018-02-06T06:37:24.180Z,1001.74
2018-02-06T06:38:24.205Z,1001.75
2018-02-06T06:39:24.277Z,1001.71
2018-02-06T06:40:24.261Z,1001.72
2018-02-06T06:41:24.289Z,1001.72
2018-02-06T06:42:24.318Z,1001.74
2018-02-06T06:43:24.344Z,1001.70
2018-02-06T06:44:24.372Z,1001.70
2018-02-06T06:45:24.406Z,1001.72
2018-02-06T06:46:24.433Z,1001.75
2018-02-06T06:47:24.455Z,1001.77
2018-02-06T06:48:24.509Z,1001.76
2018-02-06T06:49:24.528Z,1001.73
2018-02-06T06:50:24.539Z,1001.73
2018-02-06T06:51:24.566Z,1001.75
2018-02-06T06:52:24.633Z,1001.73
2018-02-06T06:53:24.623Z,1001.70
2018-02-06T06:54:24.656Z,1001.76
2018-02-06T06:55:24.703Z,1001.81
2018-02-06T06:56:25.382Z,1001.75
2018-02-06T06:57:24.734Z,1001.75
2018-02-06T06:58:24.778Z,1001.81
2018-02-06T06:59:24.789Z,1001.71
2018-02-06T07:00:24.816Z,1001.74
2018-02-06T07:01:24.844Z,1001.69
2018-02-06T07:02:24.877Z,1001.69
2018-02-06T07:03:24.899Z,1001.70
2018-02-06T07:04:24.929Z,1001.64
2018-02-06T07:05:24.954Z,1001.64
2018-02-06T07:06:24.982Z,1001.67
2018-02-06T07:07:25.010Z,1001.63
2018-02-06T07:08:25.038Z,1001.67
2018-02-06T07:09:25.069Z,1001.64
2018-02-06T07:10:25.093Z,1001.65
2018-02-06T07:11:25.122Z,1001.64
2018-02-06T07:12:25.150Z,1001.69
2018-02-06T07:13:25.177Z,1001.66
2018-02-06T07:14:25.206Z,1001.66
2018-02-06T07:15:25.232Z,1001.65
2018-02-06T07:16:25.260Z,1001.63
2018-02-06T07:17:25.289Z,1001.64
2018-02-06T07:18:25.317Z,1001.64
2018-02-06T07:19:25.343Z,1001.66
2018-02-06T07:20:25.373Z,1001.69
2018-02-06T07:21:25.411Z,1001.68
2018-02-06T07:22:25.427Z,1001.57
2018-02-06T07:23:25.455Z,1001.59
2018-02-06T07:24:25.484Z,1001.58
2018-02-06T07:25:25.511Z,1001.55
2018-02-06T07:26:25.542Z,1001.57
2018-02-06T07:27:25.570Z,1001.60
2018-02-06T07:28:25.595Z,1001.55
2018-02-06T07:29:25.622Z,1001.54
2018-02-06T07:30:26.333Z,1001.52
2018-02-06T07:31:25.677Z,1001.50
2018-02-06T07:32:25.705Z,1001.49
2018-02-06T07:33:25.734Z,1001.50
2018-02-06T07:34:25.764Z,1001.53
2018-02-06T07:35:25.788Z,1001.51
2018-02-06T07:36:25.818Z,1001.53
2018-02-06T07:37:25.846Z,1001.50
2018-02-06T07:38:25.872Z,1001.51
2018-02-06T07:39:25.900Z,1001.56
2018-02-06T07:40:25.964Z,1001.51
2018-02-06T07:41:25.979Z,1001.52
2018-02-06T07:42:25.990Z,1001.51
2018-02-06T07:43:26.013Z,1001.49
2018-02-06T07:44:26.039Z,1001.59
2018-02-06T07:45:26.067Z,1001.56
2018-02-06T07:46:26.094Z,1001.51
2018-02-06T07:47:26.122Z,1001.48
2018-02-06T07:48:26.150Z,1001.51
2018-02-06T07:49:26.212Z,1001.52
2018-02-06T07:50:26.210Z,1001.53
2018-02-06T07:51:26.237Z,1001.44
2018-02-06T07:52:26.261Z,1001.38
2018-02-06T07:53:26.290Z,1001.39
2018-02-06T07:54:26.318Z,1001.35
2018-02-06T07:55:26.346Z,1001.33
2018-02-06T07:56:26.384Z,1001.31
2018-02-06T07:57:26.401Z,1001.30
2018-02-06T07:58:26.429Z,1001.27
2018-02-06T07:59:26.457Z,1001.25
2018-02-06T08:00:26.485Z,1001.16
2018-02-06T08:01:26.513Z,1001.18
2018-02-06T08:02:26.543Z,1001.16
2018-02-06T08:03:26.568Z,1001.15
2018-02-06T08:04:26.595Z,1001.16
2018-02-06T08:05:26.625Z,1001.13
2018-02-06T08:06:26.652Z,1001.14
2018-02-06T08:07:26.680Z,1001.16
2018-02-06T08:08:26.708Z,1001.20
2018-02-06T08:09:26.736Z,1001.15
2018-02-06T08:10:26.764Z,1001.16
2018-02-06T08:11:26.790Z,1001.20
2018-02-06T08:12:26.821Z,1001.19
2018-02-06T08:13:26.847Z,1001.14
2018-02-06T08:14:26.895Z,1001.18
2018-02-06T08:15:26.902Z,1001.20
2018-02-06T08:16:26.931Z,1001.23
2018-02-06T08:17:26.959Z,1001.23
2018-02-06T08:18:26.999Z,1001.18
2018-02-06T08:19:27.014Z,1001.16
2018-02-06T08:20:27.043Z,1001.18
2018-02-06T08:21:27.071Z,1001.17
2018-02-06T08:22:27.099Z,1001.18
2018-02-06T08:23:27.126Z,1001.17
2018-02-06T08:24:27.154Z,1001.19
2018-02-06T08:25:27.182Z,1001.17
2018-02-06T08:26:27.209Z,1001.17
2018-02-06T08:27:27.238Z,1001.16
2018-02-06T08:28:27.266Z,1001.12
2018-02-06T08:29:27.295Z,1001.09
2018-02-06T08:30:27.322Z,1001.10
2018-02-06T08:31:27.349Z,1001.09
2018-02-06T08:32:27.377Z,1001.07
2018-02-06T08:33:27.407Z,1001.13
2018-02-06T08:34:27.434Z,1001.14
2018-02-06T08:35:27.464Z,1001.09
2018-02-06T08:36:27.533Z,1001.10
2018-02-06T08:37:27.519Z,1001.09
2018-02-06T08:38:27.544Z,1001.09
2018-02-06T08:39:27.573Z,1001.11
2018-02-06T08:40:27.602Z,1001.08
2018-02-06T08:41:27.630Z,1001.05
2018-02-06T08:42:27.655Z,1001.08
2018-02-06T08:43:27.705Z,1001.07
2018-02-06T08:44:27.713Z,1001.09
2018-02-06T08:45:27.742Z,1001.04
2018-02-06T08:46:27.768Z,1001.01
2018-02-06T08:47:27.796Z,1001.02
2018-02-06T08:48:27.824Z,1001.05
2018-02-06T08:49:27.853Z,1001.03
2018-02-06T08:50:27.883Z,1001.02
2018-02-06T08:51:27.924Z,1001.06
2018-02-06T08:52:27.938Z,1001.02
2018-02-06T08:53:27.965Z,1001.01
2018-02-06T08:54:27.995Z,1001.03
2018-02-06T08:55:28.019Z,1000.98
2018-02-06T08:56:28.047Z,1000.99
2018-02-06T08:57:28.076Z,1001.03
2018-02-06T08:58:28.102Z,1001.06
2018-02-06T08:59:28.130Z,1001.01
2018-02-06T09:00:28.159Z,1001.04
2018-02-06T09:01:28.186Z,1001.03
2018-02-06T09:02:28.215Z,1001.02
2018-02-06T09:03:28.241Z,1001.00
2018-02-06T09:04:28.271Z,1000.93
2018-02-06T09:05:28.300Z,1000.93
2018-02-06T09:06:28.326Z,1000.84
2018-02-06T09:07:28.355Z,1000.79
2018-02-06T09:08:28.384Z,1000.79
2018-02-06T09:09:28.451Z,1000.80
2018-02-06T09:10:28.436Z,1000.80
2018-02-06T09:11:28.464Z,1000.77
2018-02-06T09:12:28.492Z,1000.74
2018-02-06T09:13:28.521Z,1000.73
2018-02-06T09:14:28.562Z,1000.70
2018-02-06T09:15:28.576Z,1000.70
2018-02-06T09:16:28.623Z,1000.68
2018-02-06T09:17:28.633Z,1000.70
2018-02-06T09:18:28.661Z,1000.72
2018-02-06T09:19:28.688Z,1000.75
2018-02-06T09:20:28.715Z,1000.80
2018-02-06T09:21:28.798Z,1000.77
2018-02-06T09:22:28.771Z,1000.79
2018-02-06T09:23:28.800Z,1000.77
2018-02-06T09:24:28.828Z,1000.69
2018-02-06T09:25:28.856Z,1000.69
2018-02-06T09:26:28.904Z,1000.66
2018-02-06T09:27:28.916Z,1000.65
2018-02-06T09:28:28.940Z,1000.65
2018-02-06T09:29:28.991Z,1000.66
2018-02-06T09:30:29.051Z,1000.64
2018-02-06T09:31:29.025Z,1000.63
2018-02-06T09:32:29.051Z,1000.62
2018-02-06T09:33:29.079Z,1000.60
2018-02-06T09:34:29.106Z,1000.57
2018-02-06T09:35:29.135Z,1000.59
2018-02-06T09:36:29.164Z,1000.56
2018-02-06T09:37:29.193Z,1000.53
2018-02-06T09:38:29.223Z,1000.52
2018-02-06T09:39:29.251Z,1000.49
2018-02-06T09:40:29.277Z,1000.49
2018-02-06T09:41:29.305Z,1000.44
2018-02-06T09:42:29.331Z,1000.43
2018-02-06T09:43:29.361Z,1000.45
2018-02-06T09:44:29.387Z,1000.42
2018-02-06T09:45:29.429Z,1000.44
2018-02-06T09:46:29.445Z,1000.43
2018-02-06T09:47:29.486Z,1000.43
2018-02-06T09:48:29.499Z,1000.41
2018-02-06T09:49:29.530Z,1000.39
2018-02-06T09:50:29.559Z,1000.41
2018-02-06T09:51:29.586Z,1000.41
2018-02-06T09:52:29.614Z,1000.39
2018-02-06T09:53:29.641Z,1000.40
2018-02-06T09:54:29.669Z,1000.41
2018-02-06T09:55:29.735Z,1000.36
2018-02-06T09:56:29.724Z,1000.35
2018-02-06T09:57:29.763Z,1000.39
2018-02-06T09:58:29.781Z,1000.37
2018-02-06T09:59:29.817Z,1000.38
2018-02-06T10:00:29.841Z,1000.40
2018-02-06T10:01:29.868Z,1000.40
2018-02-06T10:02:29.893Z,1000.33
2018-02-06T10:03:29.923Z,1000.36
2018-02-06T10:04:29.956Z,1000.36
2018-02-06T10:05:30.008Z,1000.38
2018-02-06T10:06:30.007Z,1000.41
2018-02-06T10:07:30.056Z,1000.35
2018-02-06T10:08:30.061Z,1000.35
2018-02-06T10:09:30.089Z,1000.38
2018-02-06T10:10:30.116Z,1000.35
2018-02-06T10:11:30.147Z,1000.35
2018-02-06T10:12:30.173Z,1000.34
2018-02-06T10:13:30.200Z,1000.34
2018-02-06T10:14:30.228Z,1000.29
2018-02-06T10:15:30.257Z,1000.28
2018-02-06T10:16:30.328Z,1000.22
2018-02-06T10:17:30.312Z,1000.27
2018-02-06T10:18:30.340Z,1000.18
2018-02-06T10:19:30.367Z,1000.21
2018-02-06T10:20:30.404Z,1000.14
2018-02-06T10:21:30.442Z,1000.12
2018-02-06T10:22:30.453Z,1000.15
2018-02-06T10:23:30.484Z,1000.10
2018-02-06T10:24:30.523Z,1000.15
2018-02-06T10:25:30.538Z,1000.15
2018-02-06T10:26:30.589Z,1000.07
2018-02-06T10:27:30.591Z,1000.06
2018-02-06T10:28:30.624Z,1000.04
2018-02-06T10:29:30.675Z,1000.02
2018-02-06T10:30:30.681Z,1000.00
2018-02-06T10:31:30.712Z,1000.04
2018-02-06T10:32:31.418Z,1000.02
2018-02-06T10:33:30.760Z,999.96
2018-02-06T10:34:30.797Z,999.93
2018-02-06T10:35:30.816Z,999.90
2018-02-06T10:36:30.844Z,999.91
2018-02-06T10:37:30.877Z,999.89
2018-02-06T10:38:30.900Z,999.92
2018-02-06T10:39:30.930Z,999.90
2018-02-06T10:40:30.990Z,999.89
2018-02-06T10:41:30.988Z,999.85
2018-02-06T10:42:31.016Z,999.89
2018-02-06T10:43:31.055Z,999.92
2018-02-06T10:44:31.070Z,999.86
2018-02-06T10:45:31.101Z,999.87
2018-02-06T10:46:31.125Z,999.88
2018-02-06T10:47:31.157Z,999.87
2018-02-06T10:48:31.184Z,999.87
2018-02-06T10:49:31.210Z,999.88
2018-02-06T10:50:31.243Z,999.90
2018-02-06T10:51:31.266Z,999.90
2018-02-06T10:52:31.297Z,999.99
2018-02-06T10:53:31.357Z,999.95
2018-02-06T10:54:31.351Z,999.95
2018-02-06T10:55:31.381Z,999.91
2018-02-06T10:56:31.411Z,999.91
2018-02-06T10:57:31.462Z,999.90
2018-02-06T10:58:31.463Z,999.92
2018-02-06T10:59:31.492Z,999.88
2018-02-06T11:00:31.520Z,999.89
2018-02-06T11:01:31.548Z,999.87
2018-02-06T11:02:31.579Z,999.86
2018-02-06T11:03:31.603Z,999.89
2018-02-06T11:04:31.665Z,999.91
2018-02-06T11:05:31.669Z,999.91
2018-02-06T11:06:31.687Z,999.78
2018-02-06T11:07:31.716Z,999.84
2018-02-06T11:08:31.745Z,999.88
2018-02-06T11:09:31.777Z,999.86
2018-02-06T11:10:31.801Z,999.84
2018-02-06T11:11:31.827Z,999.87
2018-02-06T11:12:31.857Z,999.84
2018-02-06T11:13:31.885Z,999.81
2018-02-06T11:14:31.912Z,999.82
2018-02-06T11:15:31.945Z,999.88
2018-02-06T11:16:31.995Z,999.83
2018-02-06T11:17:31.997Z,999.82
2018-02-06T11:18:32.025Z,999.81
2018-02-06T11:19:32.053Z,999.84
2018-02-06T11:20:32.082Z,999.87
2018-02-06T11:21:32.109Z,999.82
2018-02-06T11:22:32.136Z,999.83
2018-02-06T11:23:32.165Z,999.83
2018-02-06T11:24:32.199Z,999.80
2018-02-06T11:25:32.222Z,999.79
2018-02-06T11:26:32.262Z,999.79
2018-02-06T11:27:32.277Z,999.80
2018-02-06T11:28:32.308Z,999.75
2018-02-06T11:29:32.334Z,999.76
2018-02-06T11:30:32.362Z,999.74
2018-02-06T11:31:32.391Z,999.74
2018-02-06T11:32:32.418Z,999.74
2018-02-06T11:33:32.448Z,999.72
2018-02-06T11:34:32.483Z,999.73
2018-02-06T11:35:32.502Z,999.73
2018-02-06T11:36:32.532Z,999.75
2018-02-06T11:37:32.591Z,999.76
2018-02-06T11:38:32.587Z,999.74
2018-02-06T11:39:32.614Z,999.71
2018-02-06T11:40:32.646Z,999.73
2018-02-06T11:41:32.672Z,999.73
2018-02-06T11:42:32.699Z,999.75
2018-02-06T11:43:32.727Z,999.75
2018-02-06T11:44:32.756Z,999.75
2018-02-06T11:45:32.822Z,999.81
2018-02-06T11:46:32.812Z,999.77
2018-02-06T11:47:32.840Z,999.76
2018-02-06T11:48:32.905Z,999.76
2018-02-06T11:49:32.899Z,999.78
2018-02-06T11:50:32.925Z,999.80
2018-02-06T11:51:32.987Z,999.77
2018-02-06T11:52:32.982Z,999.75
2018-02-06T11:53:33.009Z,999.75
2018-02-06T11:54:33.037Z,999.82
2018-02-06T11:55:33.066Z,999.83
2018-02-06T11:56:33.092Z,999.76
2018-02-06T11:57:33.122Z,999.71
2018-02-06T11:58:33.155Z,999.82
2018-02-06T11:59:33.176Z,999.72
2018-02-06T12:00:33.205Z,999.75
2018-02-06T12:01:33.233Z,999.72
2018-02-06T12:02:33.260Z,999.75
2018-02-06T12:03:33.289Z,999.74
2018-02-06T12:04:33.318Z,999.68
2018-02-06T12:05:33.345Z,999.63
2018-02-06T12:06:33.407Z,999.69
2018-02-06T12:07:33.400Z,999.67
2018-02-06T12:08:33.432Z,999.60
2018-02-06T12:09:33.462Z,999.62
2018-02-06T12:10:33.499Z,999.57
2018-02-06T12:11:33.513Z,999.58
2018-02-06T12:12:33.579Z,999.66
2018-02-06T12:13:33.569Z,999.63
2018-02-06T12:14:33.599Z,999.61
2018-02-06T12:15:34.534Z,999.59
2018-02-06T12:16:33.653Z,999.58
2018-02-06T12:17:33.681Z,999.61
2018-02-06T12:18:33.709Z,999.59
2018-02-06T12:19:33.737Z,999.58
2018-02-06T12:20:33.765Z,999.59
2018-02-06T12:21:33.800Z,999.58
2018-02-06T12:22:33.822Z,999.57
2018-02-06T12:23:33.849Z,999.54
2018-02-06T12:24:33.877Z,999.51
2018-02-06T12:25:33.906Z,999.51
2018-02-06T12:26:33.933Z,999.49
2018-02-06T12:27:33.989Z,999.50
2018-02-06T12:28:33.989Z,999.48
2018-02-06T12:29:34.021Z,999.51
2018-02-06T12:30:34.045Z,999.57
2018-02-06T12:31:34.073Z,999.49
2018-02-06T12:32:34.103Z,999.49
2018-02-06T12:33:34.129Z,999.48
2018-02-06T12:34:34.157Z,999.56
2018-02-06T12:35:34.185Z,999.46
2018-02-06T12:36:34.213Z,999.42
2018-02-06T12:37:34.254Z,999.37
2018-02-06T12:38:34.269Z,999.38
2018-02-06T12:39:34.347Z,999.42
2018-02-06T12:40:34.328Z,999.38
2018-02-06T12:41:34.353Z,999.41
2018-02-06T12:42:34.382Z,999.40
2018-02-06T12:43:34.409Z,999.40
2018-02-06T12:44:34.436Z,999.39
2018-02-06T12:45:34.465Z,999.38
2018-02-06T12:46:34.493Z,999.40
2018-02-06T12:47:34.525Z,999.43
2018-02-06T12:48:34.615Z,999.41
2018-02-06T12:49:34.585Z,999.41
2018-02-06T12:50:34.604Z,999.40
2018-02-06T12:51:34.634Z,999.49
2018-02-06T12:52:34.661Z,999.41
2018-02-06T12:53:34.693Z,999.47
2018-02-06T12:54:34.716Z,999.43
2018-02-06T12:55:34.745Z,999.39
2018-02-06T12:56:34.773Z,999.42
2018-02-06T12:57:34.814Z,999.41
2018-02-06T12:58:34.828Z,999.49
2018-02-06T12:59:34.861Z,999.39
2018-02-06T13:00:34.886Z,999.44
2018-02-06T13:01:34.916Z,999.40
2018-02-06T13:02:34.941Z,999.43
2018-02-06T13:03:35.009Z,999.32
2018-02-06T13:04:34.998Z,999.29
2018-02-06T13:05:35.026Z,999.30
2018-02-06T13:06:35.056Z,999.28
2018-02-06T13:07:35.080Z,999.32
2018-02-06T13:08:35.108Z,999.27
2018-02-06T13:09:35.137Z,999.31
2018-02-06T13:10:35.164Z,999.30
2018-02-06T13:11:35.192Z,999.31
2018-02-06T13:12:35.221Z,999.31
2018-02-06T13:13:35.250Z,999.34
2018-02-06T13:14:35.276Z,999.38
2018-02-06T13:15:35.305Z,999.34
2018-02-06T13:16:35.332Z,999.34
2018-02-06T13:17:35.361Z,999.35
2018-02-06T13:18:35.388Z,999.38
2018-02-06T13:19:35.415Z,999.38
2018-02-06T13:20:35.444Z,999.32
2018-02-06T13:21:35.473Z,999.30
2018-02-06T13:22:35.499Z,999.35
2018-02-06T13:23:35.528Z,999.38
2018-02-06T13:24:35.556Z,999.34
2018-02-06T13:25:35.622Z,999.36
2018-02-06T13:26:35.642Z,999.37
2018-02-06T13:27:35.644Z,999.40
2018-02-06T13:28:35.689Z,999.39
2018-02-06T13:29:35.696Z,999.39
2018-02-06T13:30:35.724Z,999.40
2018-02-06T13:31:35.752Z,999.43
2018-02-06T13:32:35.787Z,999.35
2018-02-06T13:33:35.808Z,999.37
2018-02-06T13:34:35.836Z,999.38
2018-02-06T13:35:35.865Z,999.37
2018-02-06T13:36:35.894Z,999.38
2018-02-06T13:37:35.920Z,999.34
2018-02-06T13:38:35.947Z,999.34
2018-02-06T13:39:35.976Z,999.32
2018-02-06T13:40:36.003Z,999.34
2018-02-06T13:41:36.031Z,999.26
2018-02-06T13:42:36.058Z,999.27
2018-02-06T13:43:36.087Z,999.33
2018-02-06T13:44:36.115Z,999.28
2018-02-06T13:45:36.143Z,999.24
2018-02-06T13:46:36.171Z,999.21
2018-02-06T13:47:36.198Z,999.21
2018-02-06T13:48:36.228Z,999.31
2018-02-06T13:49:36.261Z,999.22
2018-02-06T13:50:36.282Z,999.17
2018-02-06T13:51:36.312Z,999.17
2018-02-06T13:52:36.344Z,999.23
2018-02-06T13:53:36.368Z,999.13
2018-02-06T13:54:36.394Z,999.15
2018-02-06T13:55:36.422Z,999.13
2018-02-06T13:56:36.451Z,999.14
2018-02-06T13:57:36.479Z,999.15
2018-02-06T13:58:36.506Z,999.19
2018-02-06T13:59:36.535Z,999.21
2018-02-06T14:00:36.563Z,999.16
2018-02-06T14:01:36.593Z,999.32
2018-02-06T14:02:36.618Z,999.18
2018-02-06T14:03:36.670Z,999.16
2018-02-06T14:04:36.676Z,999.20
2018-02-06T14:05:36.703Z,999.15
2018-02-06T14:06:36.730Z,999.14
2018-02-06T14:07:36.759Z,999.14
2018-02-06T14:08:36.786Z,999.12
2018-02-06T14:09:36.814Z,999.11